Time;durP1;ratioP1;P1;durP2;ratioP2;P2;SDS_P1;SDS_P2;PMS_P1;PMS_P2;Temp;Humidity;BMP_temperature;BMP_pressure;BME280_temperature;BME280_humidity;BME280_pressure;Samples;Min_cycle;Max_cycle;Signal;HPM_P1;HPM_P2
2022/12/23 00:00:08;;;;;;;1.60;1.25;;;;;;;9.28;100.00;100485.56;5056626;27;96830;-31
2022/12/23 00:02:33;;;;;;;5.53;2.17;;;;;;;9.27;100.00;100487.41;5056155;27;102042;-29
2022/12/23 00:04:58;;;;;;;3.28;1.50;;;;;;;9.26;100.00;100482.06;5057632;27;97356;-29
2022/12/23 00:07:24;;;;;;;8.60;2.15;;;;;;;9.26;100.00;100491.03;5058201;27;96530;-29
2022/12/23 00:09:49;;;;;;;6.85;1.80;;;;;;;9.27;100.00;100486.50;5057757;27;96845;-29
2022/12/23 00:15:04;;;;;;;2.95;1.88;;;;;;;9.27;100.00;100491.91;5058083;27;97125;-30
2022/12/23 00:17:34;;;;;;;3.13;1.85;;;;;;;9.28;100.00;100501.75;5056618;27;96542;-29
2022/12/23 00:20:00;;;;;;;6.55;2.55;;;;;;;9.26;100.00;100499.16;5056490;27;96830;-29
2022/12/23 00:25:11;;;;;;;6.72;2.55;;;;;;;9.28;100.00;100505.34;5057882;27;97018;-29
2022/12/23 00:27:37;;;;;;;11.63;2.30;;;;;;;9.27;100.00;100508.13;5056350;27;96829;-29
2022/12/23 00:30:04;;;;;;;6.20;2.63;;;;;;;9.27;100.00;100511.72;5056082;27;96865;-30
2022/12/23 00:32:30;;;;;;;7.45;2.25;;;;;;;9.28;100.00;100513.44;5055712;27;100810;-30
2022/12/23 00:34:55;;;;;;;5.32;2.40;;;;;;;9.28;100.00;100516.13;5057319;27;97886;-30
2022/12/23 00:37:20;;;;;;;6.20;2.95;;;;;;;9.27;100.00;100514.41;5057774;27;96656;-29
2022/12/23 00:45:16;;;;;;;11.18;1.92;;;;;;;9.30;100.00;100511.53;5060935;27;97015;-32
2022/12/23 00:50:27;;;;;;;6.00;2.38;;;;;;;9.30;100.00;100514.22;5061286;27;96571;-30
2022/12/23 00:52:53;;;;;;;2.47;1.73;;;;;;;9.30;100.00;100514.22;5060669;27;97985;-29
2022/12/23 00:55:18;;;;;;;12.60;2.95;;;;;;;9.30;100.00;100519.63;5060308;27;99438;-29
2022/12/23 00:57:43;;;;;;;3.05;1.98;;;;;;;9.29;100.00;100514.31;5061209;27;96543;-29
2022/12/23 01:00:09;;;;;;;4.70;2.00;;;;;;;9.28;100.00;100517.97;5061014;27;96681;-30
2022/12/23 01:05:37;;;;;;;3.63;1.75;;;;;;;9.25;100.00;100513.63;5060937;27;97015;-29
2022/12/23 01:08:08;;;;;;;3.10;1.77;;;;;;;9.26;100.00;100526.16;5060784;27;96617;-29
2022/12/23 01:10:38;;;;;;;6.60;2.10;;;;;;;9.26;100.00;100526.16;5059296;27;96852;-30
2022/12/23 01:13:05;;;;;;;6.13;2.55;;;;;;;9.26;100.00;100541.53;5058285;27;100715;-29
2022/12/23 01:15:31;;;;;;;4.90;2.35;;;;;;;9.24;100.00;100528.09;5058988;27;100930;-29
2022/12/23 01:17:57;;;;;;;6.82;2.25;;;;;;;9.26;100.00;100531.56;5059348;27;96675;-29
2022/12/23 01:20:23;;;;;;;3.85;2.03;;;;;;;9.23;100.00;100523.66;5060878;27;96761;-29
2022/12/23 01:22:48;;;;;;;8.25;1.77;;;;;;;9.22;100.00;100540.81;5059406;27;99512;-29
2022/12/23 01:25:13;;;;;;;3.75;2.35;;;;;;;9.21;100.00;100522.88;5059773;27;104716;-30
2022/12/23 01:27:39;;;;;;;4.00;2.15;;;;;;;9.23;100.00;100534.47;5060591;27;96590;-29
2022/12/23 01:30:05;;;;;;;4.53;2.00;;;;;;;9.23;100.00;100539.03;5060653;27;96912;-30
2022/12/23 01:32:30;;;;;;;5.47;1.88;;;;;;;9.23;100.00;100544.44;5059890;27;97986;-30
2022/12/23 01:34:56;;;;;;;3.35;1.95;;;;;;;9.24;100.00;100549.72;5059948;27;97776;-30
2022/12/23 01:37:21;;;;;;;5.00;2.42;;;;;;;9.24;100.00;100554.25;5060116;27;96542;-29
2022/12/23 01:39:46;;;;;;;3.72;2.38;;;;;;;9.23;100.00;100541.72;5060416;27;96725;-29
2022/12/23 01:45:00;;;;;;;5.15;2.60;;;;;;;9.23;100.00;100558.81;5060211;27;96996;-29
2022/12/23 01:47:28;;;;;;;6.85;2.58;;;;;;;9.25;100.00;100566.81;5058766;27;96713;-30
2022/12/23 01:50:00;;;;;;;10.32;2.65;;;;;;;9.25;100.00;100586.59;5060230;27;96816;-29
2022/12/23 01:52:26;;;;;;;;;;;;;;;9.24;100.00;100579.44;5058548;27;100992;-29
2022/12/23 01:54:51;;;;;;;4.63;2.47;;;;;;;9.21;100.00;100581.47;5059525;27;99381;-30
2022/12/23 01:57:17;;;;;;;6.20;3.22;;;;;;;9.24;100.00;100583.97;5058654;27;96596;-30
2022/12/23 02:05:15;;;;;;;5.45;2.72;;;;;;;9.22;100.00;100594.88;5060078;27;97014;-30
2022/12/23 02:10:35;;;;;;;6.70;2.40;;;;;;;9.23;100.00;100604.75;5060485;27;96432;-29
2022/12/23 02:13:17;;;;;;;3.33;2.20;;;;;;;9.21;100.00;100606.66;5058055;27;101108;-33
2022/12/23 02:18:55;;;;;;;9.43;2.70;;;;;;;9.22;100.00;100612.94;5060390;27;96641;-31
2022/12/23 02:21:20;;;;;;;;;;;;;;;9.22;100.00;100624.59;5060105;27;96552;-31
2022/12/23 02:24:16;;;;;;;2.83;1.67;;;;;;;9.22;100.00;100621.03;5059178;27;97935;-30
2022/12/23 02:27:15;;;;;;;2.95;1.73;;;;;;;9.23;100.00;100629.06;5059405;27;97336;-30
2022/12/23 02:30:06;;;;;;;5.05;2.05;;;;;;;9.24;100.00;100638.03;5058826;27;96443;-30
2022/12/23 02:32:56;;;;;;;11.05;2.45;;;;;;;9.24;100.00;100646.16;5059395;27;96851;-31
2022/12/23 02:35:40;;;;;;;4.47;2.28;;;;;;;9.22;100.00;100645.34;5059430;27;97540;-31
2022/12/23 02:38:13;;;;;;;6.05;2.50;;;;;;;9.21;100.00;100652.59;5058918;27;97858;-30
2022/12/23 02:40:51;;;;;;;4.07;2.55;;;;;;;9.22;100.00;100659.75;5058034;27;96656;-29
2022/12/23 02:43:37;;;;;;;5.78;2.58;;;;;;;9.21;100.00;100651.75;5058071;27;96765;-30
2022/12/23 02:46:08;;;;;;;4.47;2.47;;;;;;;9.21;100.00;100662.56;5057550;27;100612;-31
2022/12/23 02:48:40;;;;;;;4.45;2.30;;;;;;;9.19;100.00;100657.22;5058942;27;97843;-30
2022/12/23 02:51:07;;;;;;;;;;;;;;;9.19;100.00;100657.22;5058261;27;96712;-29
2022/12/23 02:53:36;;;;;;;4.88;2.28;;;;;;;9.18;100.00;100657.34;5059404;27;96785;-30
2022/12/23 02:56:05;;;;;;;5.20;2.45;;;;;;;9.18;100.00;100657.34;5056814;27;98915;-30
2022/12/23 02:58:39;;;;;;;6.72;3.00;;;;;;;9.19;100.00;100654.53;5057049;27;100248;-29
2022/12/23 03:01:06;;;;;;;5.07;2.80;;;;;;;9.17;100.00;100655.56;5057581;27;96841;-29
2022/12/23 03:03:34;;;;;;;4.65;2.13;;;;;;;9.18;100.00;100639.28;5057537;27;96882;-29
2022/12/23 03:06:01;;;;;;;3.88;2.30;;;;;;;9.16;100.00;100634.94;5056056;27;100787;-30
2022/12/23 03:08:38;;;;;;;4.47;2.13;;;;;;;9.18;100.00;100647.38;5057018;27;100712;-29
2022/12/23 03:11:10;;;;;;;6.10;2.45;;;;;;;9.19;100.00;100653.66;5057635;27;96619;-29
2022/12/23 03:13:47;;;;;;;;;;;;;;;9.20;100.00;100661.69;5058106;27;96784;-29
2022/12/23 03:16:25;;;;;;;2.40;1.23;;;;;;;9.17;100.00;100659.13;5058763;27;97499;-29
2022/12/23 03:19:03;;;;;;;3.80;2.13;;;;;;;9.20;100.00;100652.69;5057075;27;100976;-30
2022/12/23 03:21:37;;;;;;;4.80;2.25;;;;;;;9.18;100.00;100660.91;5057865;27;96837;-29
2022/12/23 03:24:14;;;;;;;5.95;2.70;;;;;;;9.15;100.00;100658.34;5058576;27;96683;-29
2022/12/23 03:26:48;;;;;;;3.30;2.00;;;;;;;9.15;100.00;100652.94;5058067;27;97993;-29
2022/12/23 03:29:39;;;;;;;4.65;2.40;;;;;;;9.16;100.00;100648.44;5056844;27;100884;-29
2022/12/23 03:32:06;;;;;;;4.80;2.40;;;;;;;9.17;100.00;100653.75;5057228;27;96734;-29
2022/12/23 03:34:38;;;;;;;5.32;2.30;;;;;;;9.12;100.00;100651.31;5056868;27;96946;-29
2022/12/23 03:37:08;;;;;;;5.47;2.67;;;;;;;9.13;100.00;100660.31;5056805;27;101015;-29
2022/12/23 03:39:40;;;;;;;5.88;2.13;;;;;;;9.14;100.00;100648.53;5057097;27;101313;-29
2022/12/23 03:42:12;;;;;;;;;;;;;;;9.14;100.00;100646.69;5057493;27;96649;-29
2022/12/23 03:44:42;;;;;;;4.70;2.28;;;;;;;9.12;100.00;100655.84;5058470;27;97320;-29
2022/12/23 03:47:13;;;;;;;3.63;2.10;;;;;;;9.13;100.00;100654.91;5056138;27;100855;-29
2022/12/23 03:49:43;;;;;;;2.67;1.57;;;;;;;9.11;100.00;100649.56;5056569;27;100796;-29
2022/12/23 03:52:12;;;;;;;5.47;2.80;;;;;;;9.11;100.00;100660.38;5056979;27;96670;-30
2022/12/23 03:55:06;;;;;;;4.68;2.42;;;;;;;9.12;100.00;100669.34;5056939;27;96806;-30
2022/12/23 03:57:47;;;;;;;4.22;2.28;;;;;;;9.13;100.00;100665.72;5052656;27;101007;-29
2022/12/23 04:00:13;;;;;;;4.45;2.53;;;;;;;9.10;100.00;100666.72;5056448;27;100980;-29
2022/12/23 04:03:10;;;;;;;5.00;2.25;;;;;;;9.11;100.00;100684.69;5058243;27;96567;-30
2022/12/23 04:05:39;;;;;;;5.70;1.92;;;;;;;9.11;100.00;100679.28;5042051;27;96474;-29
2022/12/23 04:08:13;;;;;;;7.28;2.50;;;;;;;9.09;100.00;100673.09;5056239;27;101603;-29
2022/12/23 04:10:39;;;;;;;9.27;2.20;;;;;;;9.08;100.00;100675.88;5056142;27;101022;-29
2022/12/23 04:13:04;;;;;;;5.75;2.83;;;;;;;9.10;100.00;100682.94;5057634;27;96760;-29
2022/12/23 04:15:30;;;;;;;4.97;2.33;;;;;;;9.08;100.00;100671.38;5058108;27;96703;-30
2022/12/23 04:17:56;;;;;;;4.20;2.47;;;;;;;9.12;100.00;100685.56;5057333;27;97558;-30
2022/12/23 04:20:23;;;;;;;6.38;2.58;;;;;;;9.11;100.00;100698.22;5055918;27;100891;-31
2022/12/23 04:22:49;;;;;;;4.32;2.70;;;;;;;9.12;100.00;100689.13;5055654;27;96811;-29
2022/12/23 04:25:15;;;;;;;4.95;2.92;;;;;;;9.10;100.00;100688.34;5057905;27;96813;-30
2022/12/23 04:27:41;;;;;;;6.05;3.38;;;;;;;9.10;100.00;100692.88;5056005;27;100875;-29
2022/12/23 04:30:09;;;;;;;8.27;3.65;;;;;;;9.08;100.00;100689.41;5056064;27;101077;-29
2022/12/23 04:32:35;;;;;;;8.90;3.67;;;;;;;9.09;100.00;100680.34;5056419;27;96714;-31
2022/12/23 04:35:00;;;;;;;9.05;3.60;;;;;;;9.08;100.00;100676.78;5057627;27;96808;-29
2022/12/23 04:37:26;;;;;;;10.50;3.10;;;;;;;9.08;100.00;100676.78;5056741;27;97836;-29
2022/12/23 04:39:51;;;;;;;7.70;3.17;;;;;;;9.09;100.00;100673.09;5057177;27;97178;-29
2022/12/23 04:42:16;;;;;;;5.32;3.17;;;;;;;9.08;100.00;100668.69;5057480;27;96638;-31
2022/12/23 04:44:42;;;;;;;6.32;3.63;;;;;;;9.08;100.00;100667.78;5057594;27;96823;-29
2022/12/23 04:47:07;;;;;;;7.65;2.70;;;;;;;9.08;100.00;100676.78;5057204;27;97903;-29
2022/12/23 04:49:32;;;;;;;9.85;4.07;;;;;;;9.08;100.00;100665.06;5056924;27;97639;-29
2022/12/23 04:51:58;;;;;;;7.93;3.92;;;;;;;9.06;100.00;100657.09;5057683;27;96749;-29
2022/12/23 04:54:23;;;;;;;8.50;3.53;;;;;;;9.06;100.00;100659.78;5057907;27;96820;-29
2022/12/23 04:56:49;;;;;;;6.35;3.15;;;;;;;9.07;100.00;100668.75;5056804;27;98830;-30
2022/12/23 04:59:14;;;;;;;8.80;3.65;;;;;;;9.07;100.00;100680.44;5056948;27;97749;-30
2022/12/23 05:01:41;;;;;;;7.55;3.38;;;;;;;9.06;100.00;100667.91;5057087;27;96623;-29
2022/12/23 05:04:10;;;;;;;8.07;3.50;;;;;;;9.06;100.00;100678.69;5055560;27;96926;-29
2022/12/23 05:06:36;;;;;;;9.25;3.78;;;;;;;9.04;100.00;100679.75;5055306;27;100853;-30
2022/12/23 05:09:02;;;;;;;9.23;3.63;;;;;;;9.04;100.00;100680.63;5056960;27;97957;-29
2022/12/23 05:11:28;;;;;;;8.65;4.40;;;;;;;9.00;100.00;100686.28;5055920;27;96676;-29
2022/12/23 05:13:53;;;;;;;6.57;3.08;;;;;;;8.98;100.00;100690.91;5057467;27;96799;-29
2022/12/23 05:16:19;;;;;;;6.82;2.97;;;;;;;9.02;100.00;100697.88;5056580;27;99178;-29
2022/12/23 05:18:44;;;;;;;5.25;2.92;;;;;;;8.99;100.00;100695.34;5056914;27;97790;-30
2022/12/23 05:21:10;;;;;;;7.28;3.55;;;;;;;9.01;100.00;100706.91;5057110;27;96899;-29
2022/12/23 05:23:35;;;;;;;8.35;2.78;;;;;;;8.99;100.00;100706.16;5056968;27;96911;-29
2022/12/23 05:26:00;;;;;;;7.15;3.58;;;;;;;8.99;100.00;100717.84;5056144;27;97499;-29
2022/12/23 05:28:26;;;;;;;4.78;2.58;;;;;;;8.99;100.00;100715.13;5056314;27;99152;-29
2022/12/23 05:31:04;;;;;;;7.82;3.30;;;;;;;8.99;100.00;100716.97;5059439;27;96613;-30
2022/12/23 05:33:30;;;;;;;7.40;3.15;;;;;;;8.99;100.00;100714.28;5059291;27;96810;-30
2022/12/23 05:35:56;;;;;;;6.40;2.88;;;;;;;8.95;100.00;100715.41;5058525;27;100719;-29
2022/12/23 05:38:21;;;;;;;6.55;2.47;;;;;;;8.94;100.00;100714.53;5060083;27;97785;-30
2022/12/23 05:40:47;;;;;;;3.53;2.22;;;;;;;8.95;100.00;100710.00;5060526;27;96542;-31
2022/12/23 05:43:19;;;;;;;7.88;2.65;;;;;;;8.92;100.00;100706.50;5059213;27;97096;-30
2022/12/23 05:45:45;;;;;;;;;;;;;;;8.95;100.00;100705.44;5059745;27;99114;-29
2022/12/23 05:48:11;;;;;;;3.08;1.85;;;;;;;8.91;100.00;100691.28;5060036;27;97835;-30
2022/12/23 05:50:37;;;;;;;4.32;1.80;;;;;;;8.89;100.00;100682.38;5059560;27;96688;-31
2022/12/23 05:53:03;;;;;;;5.53;3.03;;;;;;;8.92;100.00;100681.31;5060080;27;96849;-29
2022/12/23 05:55:28;;;;;;;7.60;2.63;;;;;;;8.89;100.00;100668.88;5059617;27;97534;-30
2022/12/23 05:57:53;;;;;;;5.43;3.20;;;;;;;8.92;100.00;100673.22;5059570;27;99227;-29
2022/12/23 06:00:19;;;;;;;7.20;3.58;;;;;;;8.92;100.00;100667.81;5060090;27;96644;-31
2022/12/23 06:02:45;;;;;;;6.30;2.60;;;;;;;8.90;100.00;100657.09;5058525;27;96858;-29
2022/12/23 06:05:11;;;;;;;5.70;2.28;;;;;;;8.91;100.00;100653.44;5059907;27;97286;-30
2022/12/23 06:07:37;;;;;;;6.35;2.78;;;;;;;8.88;100.00;100659.00;5058471;27;100854;-31
2022/12/23 06:10:08;;;;;;;5.70;2.75;;;;;;;8.88;100.00;100661.72;5058395;27;96690;-29
2022/12/23 06:12:33;;;;;;;7.18;3.13;;;;;;;8.86;100.00;100651.97;5059820;27;96834;-29
2022/12/23 06:14:59;;;;;;;7.13;2.83;;;;;;;8.84;100.00;100660.16;5058950;27;97906;-31
2022/12/23 06:17:24;;;;;;;5.32;3.15;;;;;;;8.85;100.00;100671.84;5059715;27;97203;-29
2022/12/23 06:19:50;;;;;;;6.30;2.35;;;;;;;8.85;100.00;100670.00;5059898;27;96768;-29
2022/12/23 06:22:16;;;;;;;8.32;2.67;;;;;;;8.85;100.00;100675.41;5058926;27;96954;-29
2022/12/23 06:24:42;;;;;;;6.20;2.58;;;;;;;8.81;100.00;100679.22;5057820;27;101061;-29
2022/12/23 06:27:08;;;;;;;7.70;3.67;;;;;;;8.81;100.00;100684.63;5057746;27;100762;-29
2022/12/23 06:29:33;;;;;;;11.88;3.97;;;;;;;8.83;100.00;100687.25;5059107;27;97984;-30
2022/12/23 06:31:58;;;;;;;9.10;2.67;;;;;;;8.83;100.00;100685.41;5060152;27;96616;-30
2022/12/23 06:34:24;;;;;;;7.13;3.20;;;;;;;8.79;100.00;100683.84;5059042;27;97980;-29
2022/12/23 06:36:49;;;;;;;7.25;3.72;;;;;;;8.81;100.00;100692.72;5059237;27;96717;-29
2022/12/23 06:39:14;;;;;;;7.45;3.22;;;;;;;8.81;100.00;100694.56;5059028;27;97656;-29
2022/12/23 06:41:39;;;;;;;8.77;3.72;;;;;;;8.81;100.00;100695.44;5059492;27;96866;-29
2022/12/23 06:44:05;;;;;;;13.10;4.40;;;;;;;8.81;100.00;100703.53;5058746;27;97369;-30
2022/12/23 06:46:31;;;;;;;12.40;3.88;;;;;;;8.84;100.00;100716.00;5058840;27;97350;-29
2022/12/23 06:48:56;;;;;;;11.70;3.22;;;;;;;8.83;100.00;100712.44;5059066;27;96679;-29
2022/12/23 06:51:21;;;;;;;7.88;2.70;;;;;;;8.80;100.00;100699.09;5059477;27;96851;-29
2022/12/23 06:53:47;;;;;;;7.82;2.25;;;;;;;8.83;100.00;100707.03;5058882;27;97915;-30
2022/12/23 06:56:12;;;;;;;7.35;3.15;;;;;;;8.81;100.00;100706.22;5058983;27;99156;-29
2022/12/23 06:58:37;;;;;;;7.15;2.63;;;;;;;8.80;100.00;100704.50;5059046;27;96573;-29
2022/12/23 07:01:03;;;;;;;8.75;3.05;;;;;;;8.79;100.00;100707.28;5059231;27;96886;-29
2022/12/23 07:03:28;;;;;;;7.95;3.85;;;;;;;8.79;100.00;100715.38;5058196;27;97986;-29
2022/12/23 07:05:53;;;;;;;6.57;2.88;;;;;;;8.79;100.00;100721.66;5058576;27;97283;-29
2022/12/23 07:08:19;;;;;;;8.73;2.92;;;;;;;8.74;100.00;100721.03;5059153;27;96533;-29
2022/12/23 07:10:45;;;;;;;6.07;2.75;;;;;;;8.72;100.00;100728.34;5057545;27;97008;-30
2022/12/23 07:13:11;;;;;;;8.98;3.95;;;;;;;8.76;100.00;100720.97;5058195;27;97993;-29
2022/12/23 07:15:37;;;;;;;7.63;2.88;;;;;;;8.71;100.00;100722.09;5058427;27;97913;-29
2022/12/23 07:18:03;;;;;;;5.47;3.00;;;;;;;8.75;100.00;100713.81;5057438;27;97148;-30
2022/12/23 07:20:28;;;;;;;6.05;3.25;;;;;;;8.77;100.00;100703.78;5059331;27;96799;-29
2022/12/23 07:22:54;;;;;;;5.60;2.10;;;;;;;8.76;100.00;100700.22;5057577;27;97421;-31
2022/12/23 07:25:20;;;;;;;6.80;2.53;;;;;;;8.77;100.00;100706.50;5056700;27;101440;-30
2022/12/23 07:27:45;;;;;;;8.02;3.13;;;;;;;8.76;100.00;100702.06;5057775;27;96676;-29
2022/12/23 07:30:11;;;;;;;6.65;3.33;;;;;;;8.76;100.00;100708.31;5058418;27;96836;-30
2022/12/23 07:32:36;;;;;;;6.93;3.30;;;;;;;8.75;100.00;100703.91;5058424;27;97465;-29
2022/12/23 07:35:02;;;;;;;7.38;3.30;;;;;;;8.78;100.00;100701.00;5057947;27;97936;-29
2022/12/23 07:37:27;;;;;;;7.32;2.63;;;;;;;8.78;100.00;100687.50;5058375;27;96463;-30
2022/12/23 07:39:52;;;;;;;6.82;2.88;;;;;;;8.79;100.00;100689.25;5058526;27;96795;-29
2022/12/23 07:42:18;;;;;;;6.13;2.72;;;;;;;8.81;100.00;100708.94;5057869;27;97960;-29
2022/12/23 07:44:43;;;;;;;4.30;2.17;;;;;;;8.81;100.00;100690.03;5058134;27;99751;-29
2022/12/23 07:47:09;;;;;;;6.60;2.92;;;;;;;8.79;100.00;100691.94;5058217;27;96487;-30
2022/12/23 07:49:35;;;;;;;6.65;2.38;;;;;;;8.82;100.00;100690.91;5058386;27;96872;-29
2022/12/23 07:52:00;;;;;;;3.65;1.85;;;;;;;8.80;100.00;100687.44;5057213;27;99385;-29
2022/12/23 07:54:25;;;;;;;3.95;2.35;;;;;;;8.78;100.00;100682.09;5057915;27;103314;-29
2022/12/23 07:56:50;;;;;;;5.75;1.95;;;;;;;8.80;100.00;100691.00;5058073;27;96609;-29
2022/12/23 07:59:16;;;;;;;3.67;2.17;;;;;;;8.79;100.00;100691.06;5058265;27;96830;-29
2022/12/23 08:01:41;;;;;;;3.55;1.95;;;;;;;8.76;100.00;100670.53;5057824;27;98218;-30
2022/12/23 08:04:06;;;;;;;2.88;1.38;;;;;;;8.74;100.00;100667.03;5057585;27;96819;-29
2022/12/23 08:06:35;;;;;;;1.80;1.50;;;;;;;8.73;100.00;100667.13;5058267;27;96696;-30
2022/12/23 08:09:01;;;;;;;4.72;1.90;;;;;;;8.74;100.00;100655.38;5056928;27;96848;-29
2022/12/23 08:11:26;;;;;;;2.30;1.35;;;;;;;8.76;100.00;100666.94;5057392;27;100252;-30
2022/12/23 08:13:52;;;;;;;8.57;2.20;;;;;;;8.73;100.00;100665.31;5057535;27;97724;-30
2022/12/23 08:16:17;;;;;;;2.75;1.60;;;;;;;8.77;100.00;100665.97;5057483;27;96626;-30
2022/12/23 08:18:43;;;;;;;6.10;2.30;;;;;;;8.76;100.00;100662.41;5057808;27;96800;-29
2022/12/23 08:21:14;;;;;;;4.55;2.20;;;;;;;8.76;100.00;100658.84;5057064;27;98062;-29
2022/12/23 08:23:40;;;;;;;5.43;2.15;;;;;;;8.76;100.00;100669.66;5057163;27;97886;-31
2022/12/23 08:26:22;;;;;;;5.93;2.35;;;;;;;8.75;100.00;100652.59;5056298;27;97090;-29
2022/12/23 08:28:48;;;;;;;;;;;;;;;8.76;100.00;100648.06;5057069;27;96767;-29
2022/12/23 08:31:19;;;;;;;1.63;1.40;;;;;;;8.74;100.00;100655.38;5057463;27;97371;-29
2022/12/23 08:33:48;;;;;;;6.20;2.15;;;;;;;8.74;100.00;100642.72;5056246;27;100932;-29
2022/12/23 08:36:16;;;;;;;3.45;2.25;;;;;;;8.75;100.00;100649.88;5056312;27;96687;-29
2022/12/23 08:38:42;;;;;;;3.47;1.73;;;;;;;8.74;100.00;100640.03;5056166;27;96930;-29
2022/12/23 08:41:10;;;;;;;2.90;1.98;;;;;;;8.71;100.00;100641.06;5055255;27;101395;-29
2022/12/23 08:43:35;;;;;;;4.03;2.08;;;;;;;8.71;100.00;100630.28;5055509;27;101156;-29
2022/12/23 08:46:01;;;;;;;6.68;3.05;;;;;;;8.72;100.00;100631.13;5057802;27;96638;-29
2022/12/23 08:48:26;;;;;;;4.25;2.03;;;;;;;8.72;100.00;100639.25;5057826;27;96774;-32
2022/12/23 08:50:52;;;;;;;4.72;1.88;;;;;;;8.73;100.00;100635.59;5056724;27;112072;-29
2022/12/23 08:53:17;;;;;;;4.80;2.65;;;;;;;8.71;100.00;100632.97;5057095;27;97309;-29
2022/12/23 08:55:44;;;;;;;8.27;3.03;;;;;;;8.67;100.00;100625.13;5057942;27;96537;-30
2022/12/23 08:58:11;;;;;;;9.07;2.83;;;;;;;8.67;100.00;100622.44;5056449;27;96982;-29
2022/12/23 09:00:37;;;;;;;6.55;3.25;;;;;;;8.71;100.00;100630.28;5055510;27;102732;-30
2022/12/23 09:03:03;;;;;;;7.53;3.25;;;;;;;8.69;100.00;100617.81;5055399;27;100861;-29
2022/12/23 09:05:29;;;;;;;14.90;3.55;;;;;;;8.67;100.00;100609.78;5059442;27;96655;-29
2022/12/23 09:07:55;;;;;;;10.82;3.83;;;;;;;8.70;100.00;100615.03;5059325;27;96889;-30
2022/12/23 09:10:20;;;;;;;13.07;3.72;;;;;;;8.71;100.00;100597.00;5060475;27;97931;-29
2022/12/23 09:12:46;;;;;;;10.90;3.25;;;;;;;8.71;100.00;100597.88;5060581;27;97783;-30
2022/12/23 09:15:11;;;;;;;10.73;3.58;;;;;;;8.72;100.00;100596.03;5061250;27;96496;-30
2022/12/23 09:17:37;;;;;;;12.40;3.10;;;;;;;8.71;100.00;100595.16;5060952;27;96600;-29
2022/12/23 09:20:03;;;;;;;14.98;4.85;;;;;;;8.74;100.00;100604.91;5060325;27;97412;-29
2022/12/23 09:22:31;;;;;;;9.30;3.60;;;;;;;8.71;100.00;100597.00;5057996;27;101100;-30
2022/12/23 09:24:56;;;;;;;7.95;3.58;;;;;;;8.71;100.00;100595.16;5059299;27;96575;-29
2022/12/23 09:27:21;;;;;;;12.38;3.83;;;;;;;8.76;100.00;100596.75;5060517;27;96743;-29
2022/12/23 09:29:47;;;;;;;8.35;2.75;;;;;;;8.74;100.00;100588.72;5059218;27;103943;-29
2022/12/23 09:32:12;;;;;;;13.77;4.28;;;;;;;8.76;100.00;100584.09;5060129;27;97767;-29
2022/12/23 09:34:37;;;;;;;9.50;3.70;;;;;;;8.75;100.00;100579.69;5060624;27;96665;-29
2022/12/23 09:37:03;;;;;;;10.10;3.92;;;;;;;8.78;100.00;100571.38;5060216;27;96897;-30
2022/12/23 09:39:28;;;;;;;12.90;4.43;;;;;;;8.78;100.00;100573.22;5059851;27;99245;-30
2022/12/23 09:42:00;;;;;;;10.68;4.82;;;;;;;8.80;100.00;100571.31;5059711;27;102896;-29
2022/12/23 09:44:25;;;;;;;8.57;3.13;;;;;;;8.77;100.00;100572.38;5058947;27;96665;-29
2022/12/23 09:46:55;;;;;;;10.90;3.97;;;;;;;8.76;100.00;100561.63;5060856;27;96799;-29
2022/12/23 09:49:22;;;;;;;18.40;4.53;;;;;;;8.74;100.00;100566.25;5058073;27;101022;-31
2022/12/23 09:51:52;;;;;;;16.90;5.55;;;;;;;8.75;100.00;100557.19;5058285;27;100889;-29
2022/12/23 09:54:32;;;;;;;16.38;5.68;;;;;;;8.76;100.00;100564.34;5058376;27;96643;-30
2022/12/23 09:57:02;;;;;;;10.98;4.88;;;;;;;8.72;100.00;100555.53;5060407;27;96617;-30
2022/12/23 09:59:43;;;;;;;11.38;3.80;;;;;;;8.74;100.00;100552.75;5058251;27;101186;-30
2022/12/23 10:02:28;;;;;;;6.90;4.22;;;;;;;8.71;100.00;100541.16;5060060;27;97393;-30
2022/12/23 10:05:01;;;;;;;12.32;5.20;;;;;;;8.73;100.00;100541.09;5058550;27;97442;-29
2022/12/23 10:07:40;;;;;;;10.43;4.45;;;;;;;8.74;100.00;100542.81;5058494;27;96773;-29
2022/12/23 10:10:24;;;;;;;10.57;4.15;;;;;;;8.74;100.00;100536.56;5059166;27;97502;-31
2022/12/23 10:12:52;;;;;;;12.65;5.35;;;;;;;8.74;100.00;100532.00;5058351;27;100755;-29
2022/12/23 10:15:42;;;;;;;10.15;4.78;;;;;;;8.78;100.00;100541.69;5058109;27;96534;-30
2022/12/23 10:18:24;;;;;;;9.80;4.65;;;;;;;8.78;100.00;100525.47;5058627;27;96470;-30
2022/12/23 10:20:54;;;;;;;8.07;3.92;;;;;;;8.78;100.00;100519.22;5058783;27;97908;-30
2022/12/23 10:23:30;;;;;;;10.73;4.97;;;;;;;8.79;100.00;100521.81;5057496;27;101887;-30
2022/12/23 10:25:55;;;;;;;10.50;3.88;;;;;;;8.81;100.00;100521.72;5058331;27;97378;-29
2022/12/23 10:28:22;;;;;;;12.18;3.70;;;;;;;8.81;100.00;100514.47;5059816;27;96794;-29
2022/12/23 10:30:59;;;;;;;9.52;3.72;;;;;;;8.83;100.00;100519.81;5058953;27;97661;-30
2022/12/23 10:33:43;;;;;;;9.85;4.40;;;;;;;8.84;100.00;100525.13;5057775;27;101155;-31
2022/12/23 10:36:19;;;;;;;5.78;2.95;;;;;;;8.83;100.00;100517.09;5060006;27;96468;-29
2022/12/23 10:39:13;;;;;;;13.85;3.83;;;;;;;8.86;100.00;100523.19;5059900;27;96727;-29
2022/12/23 10:41:51;;;;;;;7.60;3.47;;;;;;;8.84;100.00;100511.63;5039772;27;99611;-29
2022/12/23 10:44:25;;;;;;;6.15;3.28;;;;;;;8.84;100.00;100511.63;5057612;27;100735;-29
2022/12/23 10:47:20;;;;;;;7.10;3.83;;;;;;;8.85;100.00;100499.84;5058979;27;96802;-30
2022/12/23 10:50:20;;;;;;;12.57;4.03;;;;;;;8.85;100.00;100490.88;5059521;27;96441;-29
2022/12/23 10:52:47;;;;;;;7.22;3.83;;;;;;;8.86;100.00;100504.28;5058785;27;97387;-29
2022/12/23 10:55:26;;;;;;;10.10;4.03;;;;;;;8.85;100.00;100512.47;5057129;27;101230;-30
2022/12/23 10:57:55;;;;;;;9.93;3.78;;;;;;;8.86;100.00;100520.47;5057919;27;96724;-31
2022/12/23 11:00:22;;;;;;;13.02;6.05;;;;;;;8.83;100.00;100509.88;5057277;27;97024;-30
2022/12/23 11:03:22;;;;;;;9.63;4.80;;;;;;;8.84;100.00;100491.81;5057002;27;100784;-29
2022/12/23 11:05:51;;;;;;;14.85;4.03;;;;;;;8.84;100.00;100481.91;5059208;27;97937;-29
2022/12/23 11:08:18;;;;;;;10.48;4.25;;;;;;;8.86;100.00;100463.75;5057579;27;96689;-30
2022/12/23 11:10:45;;;;;;;13.55;5.13;;;;;;;8.86;100.00;100452.94;5057341;27;96984;-29
2022/12/23 11:13:23;;;;;;;12.38;5.38;;;;;;;8.86;100.00;100442.16;5058093;27;98056;-29
2022/12/23 11:15:48;;;;;;;8.30;4.35;;;;;;;8.88;100.00;100439.38;5057024;27;100302;-29
2022/12/23 11:18:13;;;;;;;15.32;4.97;;;;;;;8.88;100.00;100428.56;5058787;27;96478;-29
2022/12/23 11:20:41;;;;;;;12.27;5.43;;;;;;;8.85;100.00;100420.66;5058992;27;96836;-30
2022/12/23 11:23:26;;;;;;;9.40;4.68;;;;;;;8.87;100.00;100414.19;5055877;27;103081;-29
2022/12/23 11:26:01;;;;;;;10.88;5.28;;;;;;;8.89;100.00;100398.78;5056758;27;101279;-29
2022/12/23 11:28:27;;;;;;;11.77;4.88;;;;;;;8.88;100.00;100391.63;5056574;27;96752;-29
2022/12/23 11:30:56;;;;;;;13.60;6.22;;;;;;;8.87;100.00;100389.88;5057424;27;96926;-29
2022/12/23 11:33:32;;;;;;;17.08;6.32;;;;;;;8.88;100.00;100388.91;5056590;27;99093;-29
2022/12/23 11:36:01;;;;;;;15.77;6.78;;;;;;;8.86;100.00;100381.88;5056801;27;100932;-29
2022/12/23 11:38:27;;;;;;;21.45;6.95;;;;;;;8.86;100.00;100376.47;5057695;27;96644;-30
2022/12/23 11:40:52;;;;;;;10.68;5.80;;;;;;;8.86;100.00;100376.47;5057160;27;96851;-29
2022/12/23 11:43:20;;;;;;;12.52;5.90;;;;;;;8.85;100.00;100364.81;5057363;27;98032;-29
2022/12/23 11:45:46;;;;;;;12.55;6.47;;;;;;;8.83;100.00;100358.63;5057905;27;97241;-30
2022/12/23 11:48:28;;;;;;;15.93;5.85;;;;;;;8.83;100.00;100358.63;5058158;27;96781;-30
2022/12/23 11:51:01;;;;;;;10.20;4.38;;;;;;;8.83;100.00;100355.94;5057083;27;96571;-29
2022/12/23 11:53:27;;;;;;;8.25;4.72;;;;;;;8.84;100.00;100351.38;5056365;27;100964;-30
2022/12/23 11:56:07;;;;;;;10.18;4.88;;;;;;;8.85;100.00;100336.94;5054992;27;101004;-29
2022/12/23 11:58:45;;;;;;;14.93;4.78;;;;;;;8.85;100.00;100332.41;5037295;27;97042;-31
2022/12/23 12:01:17;;;;;;;12.93;5.57;;;;;;;8.84;100.00;100324.38;5054109;27;97243;-30
2022/12/23 12:03:45;;;;;;;;;;;;;;;8.85;100.00;100305.38;5053556;27;99073;-30